This is the latest recevied weather packets stored in our database for station/object EA7HQL-10. If no packets are shown the sender has not sent any weather packets the latest 10 day(s).
| Time | Temp. | Humidity | Pressure | Rain* | Wind** | Luminosity | Snow |
|---|---|---|---|---|---|---|---|
| 1777992754 | 22.78° C | 52% | 1009.3 hPa | 0 mm | - | - | - |
| 1777992459 | 22.78° C | 52% | 1009.5 hPa | 0 mm | - | - | - |
| 1777992200 | 22.78° C | 51% | 1009.5 hPa | 0 mm | - | - | - |
| 1777991904 | 22.78° C | 51% | 1009.3 hPa | 0 mm | - | - | - |
| 1777991614 | 22.78° C | 52% | 1009.5 hPa | 0 mm | - | - | - |
| 1777991349 | 22.78° C | 51% | 1009.6 hPa | 0 mm | - | - | - |
| 1777991089 | 22.78° C | 48% | 1009.7 hPa | 0 mm | - | - | - |
| 1777990839 | 22.78° C | 48% | 1009.7 hPa | 0 mm | - | - | - |
| 1777990544 | 22.22° C | 50% | 1009.7 hPa | 0 mm | - | - | - |
| 1777989739 | 23.33° C | 45% | 1009.7 hPa | 0 mm | - | - | - |
| 1777989484 | 22.78° C | 46% | 1009.6 hPa | 0 mm | - | - | - |
| 1777989234 | 22.78° C | 43% | 1009.6 hPa | 0 mm | - | - | - |
| 1777988939 | 22.78° C | 43% | 1009.8 hPa | 0 mm | - | - | - |
| 1777988651 | 22.78° C | 46% | 1010 hPa | 0 mm | - | - | - |
| 1777988357 | 22.22° C | 44% | 1010.1 hPa | 0 mm | - | - | - |
| 1777988104 | 22.78° C | 44% | 1010.2 hPa | 0 mm | - | - | - |
| 1777987849 | 22.22° C | 45% | 1010.3 hPa | 0 mm | - | - | - |
| 1777987594 | 22.78° C | 44% | 1010.2 hPa | 0 mm | - | - | - |
| 1777987324 | 22.78° C | 43% | 1010.2 hPa | 0 mm | - | - | - |
| 1777987070 | 22.22° C | 44% | 1010.3 hPa | 0 mm | - | - | - |
| 1777986829 | 22.22° C | 45% | 1010.3 hPa | 0 mm | - | - | - |
| 1777986559 | 22.78° C | 42% | 1010.6 hPa | 0 mm | - | - | - |
| 1777986319 | 23.33° C | 40% | 1010.2 hPa | 0 mm | - | - | - |
| 1777986044 | 22.78° C | 43% | 1010.6 hPa | 0 mm | - | - | - |
| 1777985764 | 22.22° C | 44% | 1010.7 hPa | 0 mm | - | - | - |
* Rain latest hour (hover to see other rain measurements)
** Current wind speed in m/s (hover to see current wind gust speed)